This is the latest recevied weather packets stored in our database for station/object DC3YC-13. If no packets are shown the sender has not sent any weather packets the latest 10 day(s).
| Time | Temp. | Humidity | Pressure | Rain* | Wind** | Luminosity | Snow |
|---|---|---|---|---|---|---|---|
| 1777709191 | 18.89° C | 48% | 1021.8 hPa | 0 mm | - | - | - |
| 1777708591 | 17.22° C | 51% | 1021.8 hPa | 0 mm | - | - | - |
| 1777707991 | 17.22° C | 52% | 1021.8 hPa | 0 mm | - | - | - |
| 1777707391 | 16.11° C | 57% | 1021.8 hPa | 0 mm | - | - | - |
| 1777706791 | 15° C | 59% | 1021.8 hPa | 0 mm | - | - | - |
| 1777706191 | 13.89° C | 61% | 1021.8 hPa | 0 mm | - | - | - |
| 1777705591 | 12.78° C | 65% | 1021.8 hPa | 0 mm | - | - | - |
| 1777704991 | 11.11° C | 73% | 1021.8 hPa | 0 mm | - | - | - |
| 1777704391 | 10° C | 77% | 1021.8 hPa | 0 mm | - | - | - |
| 1777703791 | 8.89° C | 82% | 1021.8 hPa | 0 mm | - | - | - |
| 1777703191 | 8.89° C | 83% | 1021.8 hPa | 0 mm | - | - | - |
| 1777702591 | 7.78° C | 84% | 1021.8 hPa | 0 mm | - | - | - |
| 1777701991 | 7.22° C | 87% | 1021.8 hPa | 0 mm | - | - | - |
| 1777701391 | 7.22° C | 87% | 1021.8 hPa | 0 mm | - | - | - |
| 1777700791 | 6.11° C | 90% | 1021.8 hPa | 0 mm | - | - | - |
| 1777700191 | 5° C | 93% | 1021.8 hPa | 0 mm | - | - | - |
| 1777699591 | 5° C | 93% | 1022.9 hPa | 0 mm | - | - | - |
| 1777698991 | 3.89° C | 94% | 1022.9 hPa | 0 mm | - | - | - |
| 1777698391 | 3.89° C | 94% | 1022.9 hPa | 0 mm | - | - | - |
| 1777697791 | 3.89° C | 95% | 1021.8 hPa | 0 mm | - | - | - |
| 1777697191 | 2.78° C | 95% | 1021.8 hPa | 0 mm | - | - | - |
| 1777696591 | 2.78° C | 95% | 1021.8 hPa | 0 mm | - | - | - |
| 1777695991 | 2.78° C | 95% | 1021.8 hPa | 0 mm | - | - | - |
| 1777695391 | 2.78° C | 95% | 1021.8 hPa | 0 mm | - | - | - |
| 1777694791 | 2.78° C | 94% | 1021.8 hPa | 0 mm | - | - | - |
* Rain latest hour (hover to see other rain measurements)
** Current wind speed in m/s (hover to see current wind gust speed)